createdAt,value
2022-11-14T00:01:43.076Z,7.32
2022-11-14T00:05:04.804Z,7.31
2022-11-14T00:08:24.899Z,7.33
2022-11-14T00:11:45.216Z,7.34
2022-11-14T00:15:06.122Z,7.34
2022-11-14T00:18:27.058Z,7.34
2022-11-14T00:21:47.300Z,7.35
2022-11-14T00:25:07.634Z,7.34
2022-11-14T00:28:27.765Z,7.33
2022-11-14T00:31:47.996Z,7.30
2022-11-14T00:35:08.859Z,7.27
2022-11-14T00:38:29.305Z,7.25
2022-11-14T00:41:50.446Z,7.26
2022-11-14T00:45:11.176Z,7.25
2022-11-14T00:48:31.602Z,7.24
2022-11-14T00:51:52.236Z,7.23
2022-11-14T00:55:12.367Z,7.22
2022-11-14T00:58:33.153Z,7.21
2022-11-14T01:01:57.664Z,7.22
2022-11-14T01:05:18.453Z,7.20
2022-11-14T01:08:38.603Z,7.20
2022-11-14T01:11:58.727Z,7.18
2022-11-14T01:15:19.174Z,7.16
2022-11-14T01:18:40.105Z,7.13
2022-11-14T01:22:04.800Z,7.09
2022-11-14T01:25:26.511Z,7.08
2022-11-14T01:28:47.043Z,7.07
2022-11-14T01:32:07.128Z,7.08
2022-11-14T01:35:27.159Z,7.10
2022-11-14T01:38:51.837Z,7.11
2022-11-14T01:42:12.084Z,7.09
2022-11-14T01:45:51.140Z,7.10
2022-11-14T01:49:22.262Z,7.07
2022-11-14T01:52:42.598Z,7.08
2022-11-14T01:56:05.135Z,7.07
2022-11-14T01:59:30.428Z,7.08
2022-11-14T02:02:51.282Z,7.06
2022-11-14T02:06:14.596Z,7.02
2022-11-14T02:09:37.193Z,6.98
2022-11-14T02:12:57.440Z,6.94
2022-11-14T02:16:17.573Z,6.93
2022-11-14T02:19:44.774Z,6.94
2022-11-14T02:23:05.174Z,6.94
2022-11-14T02:26:25.354Z,6.95
2022-11-14T02:29:45.412Z,6.93
2022-11-14T02:33:12.698Z,6.91
2022-11-14T02:36:33.078Z,6.87
2022-11-14T02:39:53.065Z,6.87
2022-11-14T02:43:13.277Z,6.87
2022-11-14T02:46:34.667Z,6.87
2022-11-14T02:49:54.659Z,6.88
2022-11-14T02:53:14.712Z,6.88
2022-11-14T02:56:34.891Z,6.88
2022-11-14T02:59:55.447Z,6.87
2022-11-14T03:03:15.767Z,6.88
2022-11-14T03:06:36.175Z,6.88
2022-11-14T03:09:56.413Z,6.85
2022-11-14T03:13:16.343Z,6.83
2022-11-14T03:16:36.792Z,6.84
2022-11-14T03:19:57.492Z,6.85
2022-11-14T03:23:17.802Z,6.87
2022-11-14T03:26:38.055Z,6.89
2022-11-14T03:29:58.138Z,6.88
2022-11-14T03:33:18.557Z,6.85
2022-11-14T03:36:39.026Z,6.84
2022-11-14T03:39:59.651Z,6.81
2022-11-14T03:43:21.031Z,6.76
2022-11-14T03:46:41.334Z,6.73
2022-11-14T03:50:01.397Z,6.71
2022-11-14T03:53:22.524Z,6.71
2022-11-14T03:56:42.489Z,6.68
2022-11-14T04:00:03.709Z,6.65
2022-11-14T04:03:24.403Z,6.63
2022-11-14T04:06:45.406Z,6.61
2022-11-14T04:10:06.260Z,6.60
2022-11-14T04:13:26.434Z,6.59
2022-11-14T04:16:46.881Z,6.54
2022-11-14T04:20:07.179Z,6.55
2022-11-14T04:23:27.647Z,6.58
2022-11-14T04:26:47.877Z,6.60
2022-11-14T04:30:08.643Z,6.62
2022-11-14T04:33:29.127Z,6.61
2022-11-14T04:36:52.245Z,6.58
2022-11-14T04:40:12.090Z,6.59
2022-11-14T04:43:32.180Z,6.60
2022-11-14T04:46:52.240Z,6.62
2022-11-14T04:50:12.830Z,6.64
2022-11-14T04:53:32.806Z,6.62
2022-11-14T04:56:53.193Z,6.58
2022-11-14T05:00:13.916Z,6.52
2022-11-14T05:03:34.301Z,6.45
2022-11-14T05:06:54.937Z,6.43
2022-11-14T05:10:15.222Z,6.42
2022-11-14T05:13:35.465Z,6.40
2022-11-14T05:16:55.487Z,6.36
2022-11-14T05:20:15.698Z,6.34
2022-11-14T05:23:36.152Z,6.31
2022-11-14T05:26:55.976Z,6.31
2022-11-14T05:30:16.335Z,6.32
2022-11-14T05:33:36.845Z,6.33
2022-11-14T05:36:57.176Z,6.34
2022-11-14T05:40:18.632Z,6.35
2022-11-14T05:43:40.048Z,6.36
2022-11-14T05:47:00.482Z,6.33
2022-11-14T05:50:21.302Z,6.31
2022-11-14T05:53:41.459Z,6.25
2022-11-14T05:57:02.360Z,6.22
2022-11-14T06:00:22.723Z,6.22
2022-11-14T06:03:45.619Z,6.23
2022-11-14T06:07:05.536Z,6.21
2022-11-14T06:10:26.162Z,6.17
2022-11-14T06:13:47.382Z,6.13
2022-11-14T06:17:07.597Z,6.12
2022-11-14T06:20:27.580Z,6.12
2022-11-14T06:23:49.267Z,6.09
2022-11-14T06:27:09.441Z,6.05
2022-11-14T06:30:29.588Z,6.03
2022-11-14T06:33:49.755Z,6.04
2022-11-14T06:37:10.057Z,6.06
2022-11-14T06:40:29.998Z,6.09
2022-11-14T06:43:53.099Z,6.14
2022-11-14T06:47:13.380Z,6.17
2022-11-14T06:50:33.254Z,6.20
2022-11-14T06:53:53.625Z,6.20
2022-11-14T06:57:13.863Z,6.17
2022-11-14T07:00:34.490Z,6.15
2022-11-14T07:03:58.062Z,6.14
2022-11-14T07:07:18.253Z,6.16
2022-11-14T07:10:38.736Z,6.18
2022-11-14T07:14:00.516Z,6.18
2022-11-14T07:17:21.354Z,6.18
2022-11-14T07:20:41.524Z,6.17
2022-11-14T07:24:01.963Z,6.15
2022-11-14T07:27:22.028Z,6.13
2022-11-14T07:30:42.129Z,6.15
2022-11-14T07:34:02.552Z,6.16
2022-11-14T07:37:23.689Z,6.18
2022-11-14T07:40:59.306Z,6.22
2022-11-14T07:44:20.351Z,6.25
2022-11-14T07:47:40.868Z,6.28
2022-11-14T07:51:03.547Z,6.32
2022-11-14T07:54:24.053Z,6.37
2022-11-14T07:57:48.969Z,6.37
2022-11-14T08:01:11.990Z,6.37
2022-11-14T08:04:32.542Z,6.39
2022-11-14T08:07:53.185Z,6.40
2022-11-14T08:11:17.109Z,6.40
2022-11-14T08:14:43.800Z,6.44
2022-11-14T08:18:05.007Z,6.48
2022-11-14T08:21:25.601Z,6.54
2022-11-14T08:24:46.358Z,6.60
2022-11-14T08:28:07.017Z,6.62
2022-11-14T08:31:28.838Z,6.64
2022-11-14T08:34:50.815Z,6.64
2022-11-14T08:38:11.173Z,6.65
2022-11-14T08:41:31.565Z,6.67
2022-11-14T08:44:52.449Z,6.69
2022-11-14T08:48:12.956Z,6.71
2022-11-14T08:51:35.310Z,6.76
2022-11-14T08:54:56.778Z,6.79
2022-11-14T08:58:17.427Z,6.83
2022-11-14T09:01:37.942Z,6.88
2022-11-14T09:04:58.495Z,6.92
2022-11-14T09:08:19.240Z,6.94
2022-11-14T09:11:39.873Z,6.98
2022-11-14T09:15:00.462Z,7.03
2022-11-14T09:18:20.777Z,7.05
2022-11-14T09:21:41.407Z,7.05
2022-11-14T09:25:02.534Z,7.05
2022-11-14T09:28:23.648Z,7.05
2022-11-14T09:31:44.071Z,7.05
2022-11-14T09:35:04.714Z,7.05
2022-11-14T09:38:25.220Z,7.08
2022-11-14T09:42:03.437Z,7.09
2022-11-14T09:45:24.924Z,7.13
2022-11-14T09:48:45.559Z,7.14
2022-11-14T09:52:18.462Z,7.14
2022-11-14T09:55:38.691Z,7.13
2022-11-14T09:58:59.015Z,7.12
2022-11-14T10:02:28.487Z,7.12
2022-11-14T10:06:18.349Z,7.14
2022-11-14T10:09:49.674Z,7.23
2022-11-14T10:13:47.102Z,7.26
2022-11-14T10:17:10.610Z,7.31
2022-11-14T10:20:53.508Z,7.37
2022-11-14T10:24:32.493Z,7.41
2022-11-14T10:28:10.685Z,7.43
2022-11-14T10:31:48.850Z,7.45
2022-11-14T10:35:22.454Z,7.46
2022-11-14T10:39:01.128Z,7.46
2022-11-14T10:42:40.791Z,7.46
2022-11-14T10:46:50.678Z,7.49
2022-11-14T10:50:27.361Z,7.54
2022-11-14T10:54:08.979Z,7.54
2022-11-14T10:57:33.578Z,7.53
2022-11-14T11:01:18.516Z,7.55
2022-11-14T11:04:42.031Z,7.60
2022-11-14T11:08:41.847Z,7.62
2022-11-14T11:12:04.114Z,7.61
2022-11-14T11:15:31.960Z,7.61
2022-11-14T11:18:52.613Z,7.63
2022-11-14T11:22:39.208Z,7.68
2022-11-14T11:26:05.133Z,7.74
2022-11-14T11:29:28.138Z,7.75
2022-11-14T11:32:48.312Z,7.79
2022-11-14T11:36:18.841Z,7.82
2022-11-14T11:39:54.407Z,7.85
2022-11-14T11:43:40.663Z,7.87
2022-11-14T11:47:07.662Z,7.91
2022-11-14T11:50:29.586Z,7.93
2022-11-14T11:54:18.037Z,7.93
2022-11-14T11:57:43.325Z,7.91
2022-11-14T12:01:03.628Z,7.90
2022-11-14T12:04:24.254Z,7.90
2022-11-14T12:07:57.897Z,7.90
2022-11-14T12:11:21.357Z,7.88
2022-11-14T12:14:55.361Z,7.85
2022-11-14T12:18:44.604Z,7.85
2022-11-14T12:22:37.601Z,7.86
2022-11-14T12:26:00.439Z,7.87
2022-11-14T12:29:46.100Z,7.92
2022-11-14T12:33:35.171Z,7.93
2022-11-14T12:36:55.647Z,7.97
2022-11-14T12:40:28.146Z,7.98
2022-11-14T12:43:48.403Z,7.99
2022-11-14T12:47:08.884Z,8.03
2022-11-14T12:50:42.043Z,8.06
2022-11-14T12:54:02.383Z,8.09
2022-11-14T12:57:48.105Z,8.11
2022-11-14T13:01:14.456Z,8.14
2022-11-14T13:04:40.558Z,8.18
2022-11-14T13:08:19.996Z,8.22
2022-11-14T13:12:03.712Z,8.24
2022-11-14T13:15:48.832Z,8.27
2022-11-14T13:19:28.612Z,8.30
2022-11-14T13:22:49.284Z,8.32
2022-11-14T13:26:09.746Z,8.34
2022-11-14T13:29:40.371Z,8.37
2022-11-14T13:33:02.365Z,8.39
2022-11-14T13:36:56.674Z,8.40
2022-11-14T13:40:59.800Z,8.43
2022-11-14T13:44:42.654Z,8.44
2022-11-14T13:48:30.024Z,8.44
2022-11-14T13:51:53.276Z,8.44
2022-11-14T13:55:20.722Z,8.45
2022-11-14T13:58:41.671Z,8.47
2022-11-14T14:02:10.973Z,8.48
2022-11-14T14:05:49.245Z,8.48
2022-11-14T14:09:14.759Z,8.51
2022-11-14T14:13:10.617Z,8.50
2022-11-14T14:16:56.074Z,8.52
2022-11-14T14:20:31.320Z,8.52
2022-11-14T14:24:19.646Z,8.51
2022-11-14T14:28:08.660Z,8.51
2022-11-14T14:31:41.330Z,8.49
2022-11-14T14:35:20.373Z,8.46
2022-11-14T14:38:40.665Z,8.42
2022-11-14T14:42:01.376Z,8.40
2022-11-14T14:45:23.883Z,8.36
2022-11-14T14:48:44.683Z,8.33
2022-11-14T14:52:30.888Z,8.29
2022-11-14T14:55:55.804Z,8.25
2022-11-14T14:59:23.272Z,8.22
2022-11-14T15:02:44.977Z,8.18
2022-11-14T15:06:20.686Z,8.16
2022-11-14T15:09:55.932Z,8.10
2022-11-14T15:13:19.503Z,8.07
2022-11-14T15:16:42.190Z,8.03
2022-11-14T15:20:02.943Z,7.99
2022-11-14T15:23:23.166Z,7.95
2022-11-14T15:26:45.946Z,7.92
2022-11-14T15:30:19.056Z,7.89
2022-11-14T15:33:39.798Z,7.85
2022-11-14T15:37:21.035Z,7.80
2022-11-14T15:40:41.902Z,7.76
2022-11-14T15:44:02.159Z,7.72
2022-11-14T15:47:33.905Z,7.70
2022-11-14T15:50:54.121Z,7.68
2022-11-14T15:54:23.197Z,7.66
2022-11-14T15:57:45.422Z,7.62
2022-11-14T16:01:18.425Z,7.58
2022-11-14T16:04:42.910Z,7.52
2022-11-14T16:08:08.612Z,7.47
2022-11-14T16:11:29.111Z,7.45
2022-11-14T16:14:49.607Z,7.43
2022-11-14T16:18:11.021Z,7.42
2022-11-14T16:21:31.771Z,7.42
2022-11-14T16:24:53.120Z,7.41
2022-11-14T16:28:13.440Z,7.38
2022-11-14T16:31:33.652Z,7.35
2022-11-14T16:34:53.912Z,7.33
2022-11-14T16:38:14.112Z,7.32
2022-11-14T16:41:34.303Z,7.30
2022-11-14T16:45:01.869Z,7.28
2022-11-14T16:48:22.449Z,7.25
2022-11-14T16:51:48.267Z,7.23
2022-11-14T16:55:11.121Z,7.17
2022-11-14T16:58:31.062Z,7.14
2022-11-14T17:01:51.482Z,7.11
2022-11-14T17:05:12.282Z,7.09
2022-11-14T17:08:32.402Z,7.07
2022-11-14T17:11:52.319Z,7.05
2022-11-14T17:15:12.449Z,6.99
2022-11-14T17:18:38.127Z,6.97
2022-11-14T17:21:58.659Z,6.94
2022-11-14T17:25:18.875Z,6.92
2022-11-14T17:28:45.553Z,6.91
2022-11-14T17:32:06.415Z,6.89
2022-11-14T17:35:26.439Z,6.88
2022-11-14T17:38:47.021Z,6.87
2022-11-14T17:42:07.455Z,6.85
2022-11-14T17:45:27.953Z,6.85
2022-11-14T17:48:48.665Z,6.82
2022-11-14T17:52:09.175Z,6.82
2022-11-14T17:55:29.523Z,6.81
2022-11-14T17:58:51.287Z,6.80
2022-11-14T18:02:13.500Z,6.80
2022-11-14T18:05:33.769Z,6.82
2022-11-14T18:08:54.183Z,6.81
2022-11-14T18:12:15.255Z,6.80
2022-11-14T18:15:38.525Z,6.80
2022-11-14T18:18:58.769Z,6.79
2022-11-14T18:22:19.095Z,6.78
2022-11-14T18:25:39.114Z,6.79
2022-11-14T18:29:01.611Z,6.76
2022-11-14T18:32:22.090Z,6.78
2022-11-14T18:35:42.299Z,6.79
2022-11-14T18:39:02.996Z,6.81
2022-11-14T18:42:24.530Z,6.80
2022-11-14T18:45:44.737Z,6.78
2022-11-14T18:49:05.077Z,6.74
2022-11-14T18:52:25.518Z,6.71
2022-11-14T18:55:46.956Z,6.71
2022-11-14T18:59:07.707Z,6.69
2022-11-14T19:02:28.325Z,6.71
2022-11-14T19:05:48.617Z,6.69
2022-11-14T19:09:12.884Z,6.68
2022-11-14T19:12:32.931Z,6.67
2022-11-14T19:15:53.278Z,6.70
2022-11-14T19:19:13.897Z,6.72
2022-11-14T19:22:34.281Z,6.73
2022-11-14T19:25:59.234Z,6.75
2022-11-14T19:29:19.484Z,6.77
2022-11-14T19:32:39.627Z,6.78
2022-11-14T19:36:08.545Z,6.82
2022-11-14T19:39:29.274Z,6.84
2022-11-14T19:42:52.794Z,6.85
2022-11-14T19:46:14.794Z,6.86
2022-11-14T19:49:35.144Z,6.85
2022-11-14T19:52:55.453Z,6.87
2022-11-14T19:56:17.672Z,6.89
2022-11-14T19:59:38.375Z,6.88
2022-11-14T20:02:58.830Z,6.88
2022-11-14T20:06:25.742Z,6.87
2022-11-14T20:09:46.406Z,6.86
2022-11-14T20:13:06.630Z,6.83
2022-11-14T20:16:29.997Z,6.81
2022-11-14T20:19:50.260Z,6.78
2022-11-14T20:23:10.849Z,6.74
2022-11-14T20:26:31.073Z,6.74
2022-11-14T20:29:51.588Z,6.74
2022-11-14T20:33:11.787Z,6.73
2022-11-14T20:36:50.051Z,6.72
2022-11-14T20:40:15.238Z,6.70
2022-11-14T20:43:36.532Z,6.67
2022-11-14T20:46:59.260Z,6.64
2022-11-14T20:50:19.791Z,6.63
2022-11-14T20:53:42.602Z,6.66
2022-11-14T20:57:02.990Z,6.69
2022-11-14T21:00:23.464Z,6.71
2022-11-14T21:03:43.891Z,6.74
2022-11-14T21:07:07.211Z,6.77
2022-11-14T21:10:45.823Z,6.79
2022-11-14T21:14:08.353Z,6.80
2022-11-14T21:17:30.737Z,6.80
2022-11-14T21:21:09.684Z,6.79
2022-11-14T21:24:30.156Z,6.78
2022-11-14T21:27:50.955Z,6.76
2022-11-14T21:31:27.429Z,6.77
2022-11-14T21:34:47.375Z,6.79
2022-11-14T21:38:07.789Z,6.80
2022-11-14T21:41:29.289Z,6.81
2022-11-14T21:44:49.807Z,6.81
2022-11-14T21:48:10.280Z,6.79
2022-11-14T21:51:30.764Z,6.77
2022-11-14T21:54:51.209Z,6.77
2022-11-14T21:58:12.241Z,6.78
2022-11-14T22:01:51.337Z,6.79
2022-11-14T22:05:11.770Z,6.81
2022-11-14T22:08:31.723Z,6.79
2022-11-14T22:11:51.818Z,6.77
2022-11-14T22:15:12.055Z,6.78
2022-11-14T22:18:32.376Z,6.79
2022-11-14T22:21:53.574Z,6.78
2022-11-14T22:25:13.886Z,6.79
2022-11-14T22:28:33.929Z,6.79
2022-11-14T22:31:55.897Z,6.77
2022-11-14T22:35:15.790Z,6.76
2022-11-14T22:38:36.625Z,6.74
2022-11-14T22:41:56.471Z,6.74
2022-11-14T22:45:16.665Z,6.73
2022-11-14T22:48:37.636Z,6.72
2022-11-14T22:51:57.685Z,6.72
2022-11-14T22:55:18.351Z,6.71
2022-11-14T22:58:42.273Z,6.69
2022-11-14T23:02:02.475Z,6.69
2022-11-14T23:05:22.727Z,6.68
2022-11-14T23:08:44.366Z,6.68
2022-11-14T23:12:05.030Z,6.66
2022-11-14T23:15:25.253Z,6.64
2022-11-14T23:18:46.809Z,6.65
2022-11-14T23:22:07.369Z,6.65
2022-11-14T23:25:27.756Z,6.66
2022-11-14T23:28:48.583Z,6.66
2022-11-14T23:32:08.727Z,6.67
2022-11-14T23:35:28.927Z,6.65
2022-11-14T23:38:52.979Z,6.65
2022-11-14T23:42:13.504Z,6.63
2022-11-14T23:45:33.465Z,6.63
2022-11-14T23:48:53.691Z,6.63
2022-11-14T23:52:14.020Z,6.59
2022-11-14T23:55:34.799Z,6.59
2022-11-14T23:58:54.892Z,6.58
